Time;durP1;ratioP1;P1;durP2;ratioP2;P2;SDS_P1;SDS_P2;PMS_P1;PMS_P2;Temp;Humidity;BMP_temperature;BMP_pressure;BME280_temperature;BME280_humidity;BME280_pressure;Samples;Min_cycle;Max_cycle;Signal;HPM_P1;HPM_P2
2022/11/01 00:02:47;;;;;;;3.92;2.95;;;18.50;60.30;;;;;;10465236;28;20112;-64
2022/11/01 00:07:48;;;;;;;5.10;3.10;;;18.50;60.40;;;;;;10445160;28;20099;-63
2022/11/01 00:12:49;;;;;;;3.75;2.88;;;18.50;60.10;;;;;;10408597;28;20567;-67
2022/11/01 00:17:49;;;;;;;4.85;3.10;;;18.50;60.00;;;;;;10428718;28;20040;-64
2022/11/01 00:22:50;;;;;;;6.03;3.38;;;18.50;59.90;;;;;;10431992;28;20558;-64
2022/11/01 00:27:50;;;;;;;4.05;2.72;;;18.50;59.70;;;;;;10412467;28;20025;-64
2022/11/01 00:32:51;;;;;;;5.65;3.35;;;18.60;59.70;;;;;;10408501;28;20060;-64
2022/11/01 00:37:52;;;;;;;5.68;3.72;;;18.50;59.60;;;;;;10390819;28;20129;-63
2022/11/01 00:42:52;;;;;;;3.72;2.30;;;18.50;59.50;;;;;;10419876;28;20682;-63
2022/11/01 00:47:53;;;;;;;4.90;2.83;;;18.50;59.30;;;;;;10449436;28;20100;-64
2022/11/01 00:52:54;;;;;;;4.13;2.90;;;18.50;59.30;;;;;;10457014;28;20128;-64
2022/11/01 00:57:54;;;;;;;4.05;3.03;;;18.50;59.20;;;;;;10434132;28;20056;-64
2022/11/01 01:02:55;;;;;;;4.22;2.33;;;18.50;59.10;;;;;;10422392;28;20116;-65
2022/11/01 01:07:56;;;;;;;4.68;2.55;;;18.50;59.00;;;;;;10434910;28;20515;-64
2022/11/01 01:12:56;;;;;;;5.32;3.25;;;18.50;58.90;;;;;;10398406;28;20033;-63
2022/11/01 01:17:57;;;;;;;3.08;2.72;;;18.50;59.40;;;;;;10410173;28;20013;-64
2022/11/01 01:22:58;;;;;;;4.50;2.72;;;18.50;58.70;;;;;;10405428;28;20046;-63
2022/11/01 01:27:58;;;;;;;4.28;2.78;;;18.50;58.60;;;;;;10427112;28;20059;-63
2022/11/01 01:32:59;;;;;;;4.57;2.70;;;18.50;58.60;;;;;;10415357;28;20109;-64
2022/11/01 01:38:00;;;;;;;3.80;2.40;;;18.50;58.50;;;;;;10402627;28;20100;-64
2022/11/01 01:43:00;;;;;;;3.47;2.70;;;18.60;58.50;;;;;;10404942;28;20090;-63
2022/11/01 01:48:07;;;;;;;4.43;2.88;;;18.50;58.50;;;;;;10404646;28;20100;-64
2022/11/01 01:53:21;;;;;;;4.60;2.47;;;18.60;58.40;;;;;;10405397;28;20049;-64
2022/11/01 01:58:41;;;;;;;3.92;2.35;;;18.50;58.20;;;;;;10423856;28;20033;-64
2022/11/01 02:03:43;;;;;;;2.67;2.15;;;18.50;58.10;;;;;;10447036;28;20036;-64
2022/11/01 02:08:56;;;;;;;3.78;2.53;;;18.50;58.00;;;;;;10448759;28;20610;-64
2022/11/01 02:13:57;;;;;;;5.22;2.38;;;18.50;58.10;;;;;;10420152;28;20490;-64
2022/11/01 02:19:36;;;;;;;3.30;2.35;;;18.50;57.90;;;;;;10469002;28;20029;-64
2022/11/01 02:25:02;;;;;;;4.57;2.58;;;18.50;57.90;;;;;;10445446;28;20024;-64
2022/11/01 02:30:07;;;;;;;4.43;2.33;;;18.50;57.80;;;;;;10454593;28;20028;-63
2022/11/01 02:35:23;;;;;;;4.65;2.25;;;18.50;57.70;;;;;;10469415;28;20021;-63
2022/11/01 02:41:31;;;;;;;3.70;2.30;;;18.50;57.70;;;;;;10449496;28;20531;-64
2022/11/01 02:52:00;;;;;;;3.08;2.10;;;18.50;57.60;;;;;;10427916;28;20041;-63
2022/11/01 02:57:16;;;;;;;3.15;2.25;;;18.50;57.50;;;;;;10468104;28;20049;-64
2022/11/01 03:02:38;;;;;;;4.55;2.53;;;18.50;57.50;;;;;;10436665;28;20048;-63
2022/11/01 03:07:42;;;;;;;4.00;2.13;;;18.50;57.50;;;;;;10446318;28;20024;-64
2022/11/01 03:13:20;;;;;;;2.90;1.70;;;18.50;57.50;;;;;;10407704;28;20029;-64
2022/11/01 03:18:31;;;;;;;4.30;2.22;;;18.50;57.40;;;;;;10426985;28;20021;-64
2022/11/01 03:23:41;;;;;;;3.53;1.95;;;18.50;57.30;;;;;;10420585;28;20036;-65
2022/11/01 03:28:48;;;;;;;3.55;1.73;;;18.50;57.20;;;;;;10409504;28;20029;-63
2022/11/01 03:34:03;;;;;;;4.88;2.42;;;18.50;57.20;;;;;;10441000;28;20491;-64
2022/11/01 03:39:16;;;;;;;3.08;1.98;;;18.60;57.30;;;;;;10454811;28;20041;-64
2022/11/01 03:44:18;;;;;;;3.05;2.08;;;18.60;57.20;;;;;;10409691;28;20644;-64
2022/11/01 03:49:19;;;;;;;3.05;2.20;;;18.60;57.10;;;;;;10452422;28;20059;-63
2022/11/01 03:54:20;;;;;;;3.75;1.88;;;18.50;57.00;;;;;;10408724;28;20520;-64
2022/11/01 03:59:25;;;;;;;2.92;1.70;;;18.60;57.00;;;;;;10412180;28;20434;-64
2022/11/01 04:04:26;;;;;;;3.42;1.98;;;18.60;57.00;;;;;;10451165;28;20067;-65
2022/11/01 04:09:26;;;;;;;3.05;2.10;;;18.50;57.10;;;;;;10443165;28;20110;-64
2022/11/01 04:25:05;;;;;;;3.93;2.43;;;18.30;59.90;;;;;;10449349;28;20025;-64
2022/11/01 04:30:06;;;;;;;2.97;1.70;;;18.30;60.50;;;;;;10417194;28;20064;-60
2022/11/01 04:35:10;;;;;;;3.63;2.15;;;18.30;61.00;;;;;;10410433;28;20449;-56
2022/11/01 04:40:12;;;;;;;4.68;2.53;;;18.30;61.10;;;;;;10415560;28;20527;-63
2022/11/01 04:45:12;;;;;;;3.92;1.92;;;18.30;62.30;;;;;;10457872;28;20449;-63
2022/11/01 04:50:13;;;;;;;4.00;2.38;;;18.30;63.10;;;;;;10455051;28;20109;-64
2022/11/01 04:55:14;;;;;;;7.57;2.80;;;18.30;63.30;;;;;;10443765;28;20079;-64
2022/11/01 05:00:15;;;;;;;3.67;2.47;;;18.30;62.60;;;;;;10432399;28;20565;-64
2022/11/01 05:05:16;;;;;;;3.40;2.15;;;18.30;62.70;;;;;;10454863;28;20033;-63
2022/11/01 05:10:17;;;;;;;2.88;1.90;;;18.20;63.10;;;;;;10446153;28;20021;-64
2022/11/01 05:15:18;;;;;;;3.17;1.95;;;18.20;63.20;;;;;;10427903;28;20021;-63
2022/11/01 05:20:19;;;;;;;2.85;1.60;;;18.20;63.40;;;;;;10406835;28;20120;-63
2022/11/01 05:25:20;;;;;;;3.80;2.25;;;18.20;63.50;;;;;;10419005;28;20025;-64
2022/11/01 05:30:20;;;;;;;3.80;2.22;;;18.20;63.60;;;;;;10407636;28;20045;-63
2022/11/01 05:35:21;;;;;;;11.30;2.70;;;18.20;63.70;;;;;;10418736;28;20052;-63
2022/11/01 05:40:22;;;;;;;7.55;2.83;;;18.20;65.00;;;;;;10405222;28;20172;-62
2022/11/01 05:45:23;;;;;;;7.28;4.20;;;18.20;65.90;;;;;;10415598;28;20099;-62
2022/11/01 05:50:24;;;;;;;8.95;4.15;;;18.40;66.60;;;;;;10404525;28;20491;-61
2022/11/01 05:55:25;;;;;;;20.50;4.13;;;18.40;66.60;;;;;;10455342;28;20073;-61
2022/11/01 06:00:25;;;;;;;7.75;3.83;;;18.40;66.30;;;;;;10434724;28;20111;-62
2022/11/01 06:05:27;;;;;;;14.93;4.43;;;18.40;66.50;;;;;;10437274;28;20062;-63
2022/11/01 06:10:29;;;;;;;13.05;4.15;;;18.50;67.20;;;;;;10403977;28;20072;-64
2022/11/01 06:15:29;;;;;;;18.17;5.10;;;18.40;67.00;;;;;;10388050;28;20388;-64
2022/11/01 06:20:32;;;;;;;15.35;5.38;;;18.40;67.60;;;;;;10398214;28;20043;-63
2022/11/01 06:25:32;;;;;;;13.68;4.80;;;18.40;68.00;;;;;;10444624;28;20016;-63
2022/11/01 06:30:33;;;;;;;24.77;6.10;;;18.30;67.90;;;;;;10415930;28;20023;-63
2022/11/01 06:35:34;;;;;;;29.55;7.20;;;18.30;67.30;;;;;;10442941;28;20025;-59
2022/11/01 06:40:36;;;;;;;37.25;8.38;;;18.30;67.60;;;;;;10458961;28;20033;-67
2022/11/01 06:45:37;;;;;;;52.75;9.57;;;18.20;68.00;;;;;;10449661;28;20033;-68
2022/11/01 06:50:37;;;;;;;62.08;9.65;;;18.30;68.00;;;;;;10403960;28;20498;-66
2022/11/01 06:55:38;;;;;;;41.20;8.50;;;18.30;68.10;;;;;;10404791;28;20121;-65
2022/11/01 07:00:38;;;;;;;40.70;7.90;;;18.30;68.30;;;;;;10434400;28;20121;-65
2022/11/01 07:05:40;;;;;;;32.22;7.18;;;18.20;68.70;;;;;;10465655;28;20041;-65
2022/11/01 07:10:42;;;;;;;28.08;5.65;;;18.30;68.20;;;;;;10451354;28;20079;-65
2022/11/01 07:15:42;;;;;;;24.95;6.03;;;18.20;68.50;;;;;;10468193;28;20059;-65
2022/11/01 07:20:43;;;;;;;20.20;6.05;;;18.20;68.50;;;;;;10429594;28;20453;-65
2022/11/01 07:25:44;;;;;;;16.02;4.85;;;18.20;68.30;;;;;;10421547;28;20424;-65
2022/11/01 07:30:49;;;;;;;18.20;4.30;;;18.20;68.40;;;;;;10412942;28;20021;-65
2022/11/01 07:35:51;;;;;;;15.95;4.45;;;18.20;68.30;;;;;;10451554;28;20023;-63
2022/11/01 07:40:53;;;;;;;15.70;4.13;;;18.20;68.30;;;;;;10424182;28;20116;-63
2022/11/01 07:46:03;;;;;;;14.15;4.88;;;18.20;68.00;;;;;;10406676;28;20056;-63
2022/11/01 07:51:04;;;;;;;13.48;4.70;;;18.20;68.10;;;;;;10406789;28;20105;-63
2022/11/01 07:56:06;;;;;;;14.00;3.80;;;18.20;68.00;;;;;;10423977;28;20037;-63
2022/11/01 08:01:07;;;;;;;12.40;3.80;;;18.20;68.20;;;;;;10436246;28;20029;-63
2022/11/01 08:06:08;;;;;;;9.52;3.55;;;18.20;68.20;;;;;;10443309;28;20680;-63
2022/11/01 08:11:08;;;;;;;13.35;3.67;;;18.20;68.20;;;;;;10435019;28;20492;-63
2022/11/01 08:16:09;;;;;;;13.15;3.10;;;18.20;68.10;;;;;;10407845;28;20984;-62
2022/11/01 08:21:11;;;;;;;13.68;4.05;;;18.20;68.20;;;;;;10435795;28;20103;-63
2022/11/01 08:26:12;;;;;;;11.82;3.20;;;18.30;68.10;;;;;;10391346;28;20075;-63
2022/11/01 08:31:13;;;;;;;18.33;3.92;;;18.20;67.90;;;;;;10419246;28;20406;-63
2022/11/01 08:36:14;;;;;;;10.55;3.13;;;18.30;68.00;;;;;;10423258;28;20049;-63
2022/11/01 08:41:14;;;;;;;6.72;2.97;;;18.30;68.00;;;;;;10406831;28;20125;-64
2022/11/01 08:46:15;;;;;;;10.75;2.72;;;18.30;68.00;;;;;;10406911;28;20013;-63
2022/11/01 08:51:23;;;;;;;11.77;2.70;;;18.30;67.90;;;;;;10424604;28;20108;-62
2022/11/01 08:56:25;;;;;;;9.02;2.20;;;18.40;68.00;;;;;;10435393;28;20041;-63
2022/11/01 09:01:26;;;;;;;10.13;2.30;;;18.40;68.00;;;;;;10447305;28;20030;-62
2022/11/01 09:06:28;;;;;;;8.88;2.85;;;18.40;68.00;;;;;;10448414;28;20020;-63
2022/11/01 09:11:29;;;;;;;5.20;2.20;;;18.40;67.90;;;;;;10454319;28;20021;-63
2022/11/01 09:16:31;;;;;;;4.47;1.90;;;18.40;68.00;;;;;;10422061;28;20084;-63
2022/11/01 09:21:32;;;;;;;5.65;1.88;;;18.40;68.00;;;;;;10405605;28;20064;-63
2022/11/01 09:26:33;;;;;;;9.20;2.20;;;18.50;68.00;;;;;;10404989;28;20104;-62
2022/11/01 09:31:33;;;;;;;4.97;2.40;;;18.50;68.00;;;;;;10406626;28;20029;-63
2022/11/01 09:36:34;;;;;;;5.32;2.25;;;18.50;68.00;;;;;;10405011;28;20079;-63
2022/11/01 09:41:44;;;;;;;13.27;3.85;;;18.50;68.00;;;;;;10404773;28;20053;-62
2022/11/01 09:46:52;;;;;;;7.43;2.30;;;18.60;68.00;;;;;;10412914;28;20027;-62
2022/11/01 09:51:53;;;;;;;4.75;2.13;;;18.60;68.10;;;;;;10428161;28;20026;-62
2022/11/01 09:57:18;;;;;;;5.13;1.60;;;18.60;68.10;;;;;;10442871;28;20115;-62
2022/11/01 10:02:36;;;;;;;4.03;1.90;;;18.60;68.00;;;;;;10460615;28;20446;-63
2022/11/01 10:08:21;;;;;;;6.30;2.22;;;18.70;68.00;;;;;;10446339;28;20021;-62
2022/11/01 10:13:47;;;;;;;4.32;1.70;;;18.70;67.90;;;;;;10418053;28;20832;-63
2022/11/01 10:19:04;;;;;;;3.92;1.50;;;18.80;67.90;;;;;;10445160;28;20495;-63
2022/11/01 10:24:06;;;;;;;5.57;1.33;;;18.80;67.90;;;;;;10446529;28;20774;-63
2022/11/01 10:30:03;;;;;;;4.10;1.25;;;18.80;67.90;;;;;;10433442;28;20022;-63
2022/11/01 10:35:28;;;;;;;3.03;1.73;;;18.80;67.80;;;;;;10403620;28;20518;-63
2022/11/01 10:40:46;;;;;;;4.35;1.42;;;18.90;68.00;;;;;;10424667;28;20030;-62
2022/11/01 10:45:51;;;;;;;4.78;1.58;;;18.90;67.90;;;;;;10395326;28;20040;-61
2022/11/01 10:50:54;;;;;;;4.25;1.45;;;19.00;67.90;;;;;;10424675;28;20026;-63
2022/11/01 10:56:00;;;;;;;6.53;1.48;;;19.00;67.90;;;;;;10410948;28;20053;-63
2022/11/01 11:01:05;;;;;;;1.75;1.38;;;19.00;67.90;;;;;;10408457;28;20607;-63
2022/11/01 11:06:10;;;;;;;4.07;1.30;;;19.00;67.90;;;;;;10410780;28;20104;-63
2022/11/01 11:11:15;;;;;;;4.07;1.55;;;19.00;67.90;;;;;;10410704;28;20018;-63
2022/11/01 11:16:52;;;;;;;4.15;1.52;;;19.10;68.60;;;;;;10416234;28;20056;-64
2022/11/01 11:21:53;;;;;;;3.95;1.48;;;19.10;67.90;;;;;;10448378;28;20045;-64
2022/11/01 11:26:56;;;;;;;2.10;1.15;;;19.10;67.90;;;;;;10433763;28;20017;-64
2022/11/01 11:31:58;;;;;;;4.75;1.60;;;19.10;67.90;;;;;;10426457;28;20021;-64
2022/11/01 11:37:05;;;;;;;4.78;1.50;;;19.20;67.90;;;;;;10452566;28;20017;-64
2022/11/01 11:42:24;;;;;;;4.68;1.70;;;19.20;67.90;;;;;;10444100;28;20082;-64
2022/11/01 11:47:27;;;;;;;3.00;1.30;;;19.20;68.00;;;;;;10445681;28;20074;-66
2022/11/01 11:52:37;;;;;;;3.40;1.52;;;19.20;68.10;;;;;;10439832;28;20082;-66
2022/11/01 11:57:38;;;;;;;4.47;2.10;;;19.20;68.10;;;;;;10404486;28;20510;-66
2022/11/01 12:02:40;;;;;;;3.47;1.60;;;19.20;68.20;;;;;;10425895;28;20036;-67
2022/11/01 12:07:50;;;;;;;3.67;1.90;;;19.20;68.30;;;;;;10465800;28;20013;-64
2022/11/01 12:12:52;;;;;;;4.47;1.35;;;19.20;68.30;;;;;;10421257;28;20083;-65
2022/11/01 12:17:54;;;;;;;2.30;1.50;;;19.20;68.40;;;;;;10430572;28;20020;-66
2022/11/01 12:23:23;;;;;;;4.43;1.92;;;19.20;68.40;;;;;;10434651;28;20030;-66
2022/11/01 12:28:38;;;;;;;2.63;1.13;;;19.20;68.50;;;;;;10408809;28;20033;-66
2022/11/01 12:33:57;;;;;;;4.38;1.48;;;19.20;68.50;;;;;;10434404;28;20029;-67
2022/11/01 12:39:29;;;;;;;3.63;1.20;;;19.20;68.60;;;;;;10407271;28;20033;-66
2022/11/01 12:44:40;;;;;;;3.33;1.48;;;19.20;68.50;;;;;;10417763;28;20128;-65
2022/11/01 12:49:54;;;;;;;3.15;0.93;;;19.20;68.70;;;;;;10436965;28;20112;-68
2022/11/01 12:55:25;;;;;;;4.50;1.27;;;19.20;68.60;;;;;;10429833;28;20041;-64
2022/11/01 13:01:07;;;;;;;3.85;1.17;;;19.20;68.70;;;;;;10430674;28;20037;-65
2022/11/01 13:06:42;;;;;;;3.70;1.42;;;19.20;68.80;;;;;;10423007;28;20751;-65
2022/11/01 13:12:01;;;;;;;4.75;1.02;;;19.10;68.90;;;;;;10406158;28;20108;-66
2022/11/01 13:17:37;;;;;;;2.10;0.93;;;19.10;68.90;;;;;;10439361;28;20033;-65
2022/11/01 13:23:09;;;;;;;6.05;1.42;;;19.10;68.90;;;;;;10432378;28;20025;-64
2022/11/01 13:28:22;;;;;;;10.15;2.33;;;19.10;69.20;;;;;;10416093;28;20026;-64
2022/11/01 13:34:16;;;;;;;14.75;2.55;;;19.20;69.60;;;;;;10414443;28;20025;-64
2022/11/01 13:39:59;;;;;;;5.95;2.15;;;19.20;69.80;;;;;;10404925;28;20017;-65
2022/11/01 13:45:11;;;;;;;10.68;3.55;;;19.20;70.30;;;;;;10445223;28;20032;-65
2022/11/01 13:50:36;;;;;;;8.68;2.75;;;19.20;70.60;;;;;;10440637;28;20484;-65
2022/11/01 13:56:01;;;;;;;10.88;2.97;;;19.20;71.00;;;;;;10422413;28;20053;-62
2022/11/01 14:01:35;;;;;;;4.65;2.45;;;19.20;71.10;;;;;;10432956;28;20556;-66
2022/11/01 14:06:38;;;;;;;6.45;2.08;;;19.20;70.50;;;;;;10409866;28;20022;-69
2022/11/01 14:11:48;;;;;;;11.05;4.70;;;19.20;70.40;;;;;;10409824;28;20022;-68
2022/11/01 14:16:49;;;;;;;10.15;2.85;;;19.20;72.30;;;;;;10410823;28;20032;-68
2022/11/01 14:21:52;;;;;;;5.22;2.63;;;19.40;72.90;;;;;;10441879;28;20033;-64
2022/11/01 14:27:35;;;;;;;7.63;2.42;;;19.30;70.30;;;;;;10447336;28;20107;-65
2022/11/01 14:32:36;;;;;;;5.28;2.25;;;19.20;71.10;;;;;;10412093;28;20115;-65
2022/11/01 14:37:46;;;;;;;10.48;3.50;;;19.10;70.70;;;;;;10418351;28;20083;-64
2022/11/01 14:42:49;;;;;;;16.08;2.85;;;19.10;71.50;;;;;;10445712;28;20029;-67
2022/11/01 14:47:54;;;;;;;11.48;3.22;;;19.10;73.10;;;;;;10426403;28;20095;-66
2022/11/01 14:53:36;;;;;;;19.58;2.75;;;19.10;72.60;;;;;;10456873;28;20430;-65
2022/11/01 14:58:37;;;;;;;11.73;2.92;;;19.10;71.50;;;;;;10435278;28;20108;-66
2022/11/01 15:03:38;;;;;;;16.48;2.55;;;19.00;71.40;;;;;;10433936;28;20028;-67
2022/11/01 15:08:40;;;;;;;10.77;2.65;;;19.00;71.50;;;;;;10445949;28;20052;-67
2022/11/01 15:13:43;;;;;;;13.57;2.67;;;19.00;71.60;;;;;;10429943;28;20028;-66
2022/11/01 15:18:58;;;;;;;12.48;2.05;;;19.00;73.10;;;;;;10433653;28;20026;-69
2022/11/01 15:24:00;;;;;;;11.52;2.05;;;19.00;71.90;;;;;;10422144;28;20037;-67
2022/11/01 15:29:04;;;;;;;6.47;1.65;;;19.00;73.00;;;;;;10453975;28;20100;-65
2022/11/01 15:34:27;;;;;;;8.98;2.40;;;19.00;73.00;;;;;;10451750;28;20023;-67
2022/11/01 15:39:28;;;;;;;12.45;3.97;;;19.00;73.00;;;;;;10434243;28;20025;-64
2022/11/01 15:44:29;;;;;;;11.35;2.45;;;19.00;73.10;;;;;;10451227;28;20025;-63
2022/11/01 15:49:33;;;;;;;11.50;2.22;;;18.90;72.90;;;;;;10436474;28;20021;-63
2022/11/01 15:55:04;;;;;;;9.95;2.28;;;18.90;73.10;;;;;;10447031;28;20052;-65
2022/11/01 16:00:19;;;;;;;13.25;2.22;;;18.90;72.90;;;;;;10458649;28;20033;-62
2022/11/01 16:05:28;;;;;;;7.90;1.80;;;18.90;73.70;;;;;;10442350;28;20529;-65
2022/11/01 16:10:29;;;;;;;7.03;1.30;;;18.90;71.70;;;;;;10429882;28;20030;-63
2022/11/01 16:15:34;;;;;;;6.15;2.10;;;18.80;71.80;;;;;;10429720;28;20104;-63
2022/11/01 16:20:39;;;;;;;6.97;1.80;;;18.80;71.70;;;;;;10413265;28;20468;-64
2022/11/01 16:25:40;;;;;;;6.32;1.55;;;18.80;71.80;;;;;;10419789;28;20043;-63
2022/11/01 16:30:53;;;;;;;5.72;1.50;;;18.80;71.80;;;;;;10422695;28;20029;-60
2022/11/01 16:36:05;;;;;;;5.63;2.15;;;18.80;71.70;;;;;;10419167;28;20103;-64
2022/11/01 16:41:25;;;;;;;4.63;1.20;;;18.80;71.70;;;;;;10409060;28;20038;-64
2022/11/01 16:46:28;;;;;;;7.70;1.50;;;18.80;71.60;;;;;;10430116;28;20029;-63
2022/11/01 16:51:32;;;;;;;6.55;1.40;;;18.70;71.60;;;;;;10428406;28;20028;-64
2022/11/01 16:56:39;;;;;;;3.60;1.48;;;18.70;71.50;;;;;;10460867;28;20049;-63
2022/11/01 17:01:39;;;;;;;5.03;1.30;;;18.70;71.50;;;;;;10415180;28;20119;-64
2022/11/01 17:06:40;;;;;;;6.38;1.48;;;18.70;71.60;;;;;;10440619;28;20492;-63
2022/11/01 17:11:42;;;;;;;9.85;3.53;;;18.80;71.90;;;;;;10445860;28;20138;-64
2022/11/01 17:16:45;;;;;;;16.27;5.72;;;19.10;71.70;;;;;;10441182;28;20025;-63
2022/11/01 17:21:46;;;;;;;27.27;5.03;;;19.30;72.20;;;;;;10434906;28;20037;-63
2022/11/01 17:26:48;;;;;;;19.25;5.10;;;19.30;72.90;;;;;;10444814;28;20040;-65
2022/11/01 17:31:48;;;;;;;18.67;5.63;;;19.40;75.20;;;;;;10461848;28;20025;-63
2022/11/01 17:36:50;;;;;;;23.65;5.97;;;19.80;74.20;;;;;;10446270;28;20064;-63
2022/11/01 17:41:50;;;;;;;16.85;5.78;;;19.90;74.20;;;;;;10432236;28;20036;-63
2022/11/01 17:46:51;;;;;;;22.10;6.35;;;19.80;74.00;;;;;;10446752;28;20100;-65
2022/11/01 17:51:52;;;;;;;27.77;5.38;;;19.70;74.10;;;;;;10442973;28;20075;-60
2022/11/01 17:56:52;;;;;;;23.73;5.65;;;19.60;73.50;;;;;;10433531;28;20500;-61
2022/11/01 18:01:53;;;;;;;28.08;6.55;;;19.60;73.90;;;;;;10427840;28;20124;-63
2022/11/01 18:06:54;;;;;;;32.15;6.47;;;19.40;74.10;;;;;;10442567;28;20026;-67
2022/11/01 18:12:16;;;;;;;34.08;7.68;;;19.30;74.30;;;;;;10430723;28;20116;-67
2022/11/01 18:18:37;;;;;;;31.48;6.25;;;19.20;74.20;;;;;;10401900;28;20041;-68
2022/11/01 18:23:41;;;;;;;37.65;8.15;;;19.20;74.60;;;;;;10265551;28;20187;-66
2022/11/01 18:28:43;;;;;;;32.05;6.97;;;19.20;74.80;;;;;;10387015;28;20113;-71
2022/11/01 18:34:00;;;;;;;20.77;5.85;;;19.10;74.50;;;;;;10422784;28;20133;-67
2022/11/01 18:39:28;;;;;;;13.82;4.90;;;19.10;74.50;;;;;;10426648;28;20149;-70
2022/11/01 18:44:29;;;;;;;24.02;5.88;;;19.00;74.10;;;;;;10457544;28;20064;-68
2022/11/01 18:49:30;;;;;;;16.33;5.20;;;19.00;74.30;;;;;;10448429;28;20032;-67
2022/11/01 18:54:31;;;;;;;19.88;4.93;;;19.00;74.10;;;;;;10410957;28;20476;-68
2022/11/01 18:59:35;;;;;;;17.73;4.95;;;18.90;73.80;;;;;;10429585;28;20515;-68
2022/11/01 19:04:39;;;;;;;26.30;4.55;;;18.90;73.80;;;;;;10436728;28;20013;-68
2022/11/01 19:10:01;;;;;;;19.20;5.57;;;18.90;73.90;;;;;;10454767;28;20033;-67
2022/11/01 19:15:27;;;;;;;13.77;4.05;;;18.90;73.60;;;;;;10439921;28;20013;-68
2022/11/01 19:20:51;;;;;;;14.98;4.38;;;18.90;73.40;;;;;;10411743;28;20045;-68
2022/11/01 19:25:52;;;;;;;13.43;2.85;;;18.90;73.40;;;;;;10430239;28;20014;-68
2022/11/01 19:30:56;;;;;;;9.98;3.35;;;18.80;73.40;;;;;;10449745;28;20492;-68
2022/11/01 19:35:58;;;;;;;11.35;2.63;;;18.80;73.30;;;;;;10443511;28;20033;-67
2022/11/01 19:40:58;;;;;;;13.27;3.17;;;18.80;73.20;;;;;;10429790;28;20543;-68
2022/11/01 19:45:59;;;;;;;7.30;2.80;;;18.80;73.10;;;;;;10457188;28;20025;-67
2022/11/01 19:51:00;;;;;;;12.15;2.80;;;18.80;73.00;;;;;;10429459;28;20116;-67
2022/11/01 19:56:05;;;;;;;7.82;3.05;;;18.80;73.00;;;;;;10458548;28;20119;-68
2022/11/01 20:01:18;;;;;;;6.97;2.60;;;18.80;73.00;;;;;;10455210;28;20450;-67
2022/11/01 20:06:28;;;;;;;6.90;2.40;;;18.80;72.90;;;;;;10442370;28;20595;-68
2022/11/01 20:11:31;;;;;;;10.77;2.72;;;18.80;73.00;;;;;;10423902;28;20025;-67
2022/11/01 20:16:32;;;;;;;4.13;1.75;;;18.80;73.00;;;;;;10445632;28;20083;-67
2022/11/01 20:21:32;;;;;;;8.60;2.88;;;18.80;72.70;;;;;;10463311;28;20126;-69
2022/11/01 20:26:33;;;;;;;8.00;2.75;;;18.80;73.00;;;;;;10424957;28;20024;-67
2022/11/01 20:31:34;;;;;;;6.78;2.53;;;18.80;72.50;;;;;;10424059;28;20869;-67
2022/11/01 20:36:35;;;;;;;7.40;2.25;;;18.70;72.40;;;;;;10424273;28;20029;-67
2022/11/01 20:41:35;;;;;;;5.55;2.05;;;18.70;72.40;;;;;;10434000;28;20116;-67
2022/11/01 20:46:36;;;;;;;9.13;2.65;;;18.70;72.40;;;;;;10436560;28;20096;-67
2022/11/01 20:51:37;;;;;;;7.40;2.60;;;18.70;72.40;;;;;;10434952;28;20498;-67
2022/11/01 20:56:39;;;;;;;8.10;1.90;;;18.70;72.30;;;;;;10428582;28;20499;-67
2022/11/01 21:01:39;;;;;;;8.02;3.10;;;18.70;70.50;;;;;;10425441;28;20515;-67
2022/11/01 21:06:41;;;;;;;7.90;1.65;;;18.80;69.50;;;;;;10429511;28;20119;-67
2022/11/01 21:11:42;;;;;;;6.20;1.60;;;18.80;68.60;;;;;;10409952;28;20028;-67
2022/11/01 21:16:43;;;;;;;6.45;2.65;;;18.90;68.00;;;;;;10433091;28;20030;-67
2022/11/01 21:21:50;;;;;;;3.78;1.45;;;18.90;67.40;;;;;;10432111;28;20475;-67
2022/11/01 21:26:52;;;;;;;4.78;1.50;;;18.90;66.80;;;;;;10428097;28;20029;-67
2022/11/01 21:31:54;;;;;;;8.65;1.65;;;18.90;66.30;;;;;;10414941;28;20083;-68
2022/11/01 21:36:57;;;;;;;8.48;2.80;;;18.90;65.90;;;;;;10398408;28;20084;-67
2022/11/01 21:42:03;;;;;;;3.90;1.33;;;18.90;65.40;;;;;;10405337;28;20060;-67
2022/11/01 21:47:21;;;;;;;3.42;1.38;;;18.90;65.00;;;;;;10405269;28;20589;-67
2022/11/01 21:52:22;;;;;;;5.28;1.45;;;18.90;64.70;;;;;;10424374;28;20407;-67
2022/11/01 21:57:23;;;;;;;3.50;1.15;;;18.90;64.30;;;;;;10410061;28;20041;-67
2022/11/01 22:02:24;;;;;;;5.28;1.42;;;18.90;64.60;;;;;;10404777;28;20103;-67
2022/11/01 22:07:24;;;;;;;3.08;1.33;;;18.90;63.60;;;;;;10405058;28;20049;-67
2022/11/01 22:12:25;;;;;;;2.92;1.00;;;18.90;63.50;;;;;;10440138;28;20104;-66
2022/11/01 22:17:26;;;;;;;5.63;1.55;;;19.00;63.30;;;;;;10416996;28;20112;-67
2022/11/01 22:22:26;;;;;;;6.28;1.17;;;18.90;63.00;;;;;;10439567;28;20108;-67
2022/11/01 22:27:27;;;;;;;4.25;1.23;;;18.90;62.70;;;;;;10442301;28;20067;-66
2022/11/01 22:32:28;;;;;;;3.58;1.10;;;18.90;62.50;;;;;;10411789;28;20045;-67
2022/11/01 22:37:33;;;;;;;4.82;1.00;;;19.00;62.40;;;;;;10425305;28;20120;-67
2022/11/01 22:42:34;;;;;;;2.83;1.58;;;19.00;62.10;;;;;;10453545;28;20542;-67
2022/11/01 22:47:34;;;;;;;3.63;0.90;;;19.00;61.90;;;;;;10426485;28;20030;-66
2022/11/01 22:52:42;;;;;;;3.95;1.50;;;18.90;61.70;;;;;;10439897;28;20122;-66
2022/11/01 22:57:53;;;;;;;2.72;0.80;;;18.90;61.50;;;;;;10450099;28;20056;-66
2022/11/01 23:03:17;;;;;;;2.63;0.77;;;18.90;61.40;;;;;;10452681;28;20031;-66
2022/11/01 23:08:33;;;;;;;2.40;0.70;;;18.90;61.10;;;;;;10440625;28;20017;-67
2022/11/01 23:19:00;;;;;;;2.28;0.88;;;18.90;60.80;;;;;;10431660;28;20026;-67
2022/11/01 23:24:00;;;;;;;1.52;0.80;;;18.90;60.70;;;;;;10411110;28;20116;-67
2022/11/01 23:29:01;;;;;;;2.05;0.85;;;18.90;60.50;;;;;;10448843;28;20073;-67
2022/11/01 23:34:02;;;;;;;2.38;1.05;;;18.90;60.30;;;;;;10434720;28;20390;-67
2022/11/01 23:39:10;;;;;;;1.85;0.60;;;18.90;60.20;;;;;;10452545;28;20028;-67
2022/11/01 23:44:38;;;;;;;3.20;0.60;;;18.90;60.10;;;;;;10466480;28;20029;-67
2022/11/01 23:49:39;;;;;;;2.08;0.80;;;18.90;60.00;;;;;;10452104;28;20418;-67
2022/11/01 23:54:41;;;;;;;7.95;1.42;;;18.90;59.80;;;;;;10420025;28;20095;-67
2022/11/01 23:59:42;;;;;;;1.65;0.55;;;18.90;59.60;;;;;;10436541;28;20022;-67
